createdAt,value
2023-06-14T00:00:51.062Z,100.00
2023-06-14T00:03:23.965Z,100.00
2023-06-14T00:05:54.247Z,100.00
2023-06-14T00:08:24.042Z,100.00
2023-06-14T00:10:52.816Z,100.00
2023-06-14T00:13:21.550Z,100.00
2023-06-14T00:15:51.000Z,100.00
2023-06-14T00:18:19.616Z,100.00
2023-06-14T00:20:48.344Z,100.00
2023-06-14T00:23:17.572Z,100.00
2023-06-14T00:25:46.449Z,100.00
2023-06-14T00:28:15.322Z,100.00
2023-06-14T00:30:45.283Z,100.00
2023-06-14T00:33:14.614Z,100.00
2023-06-14T00:35:48.618Z,100.00
2023-06-14T00:38:17.421Z,100.00
2023-06-14T00:40:46.197Z,100.00
2023-06-14T00:43:14.934Z,100.00
2023-06-14T00:45:43.620Z,100.00
2023-06-14T00:48:14.327Z,100.00
2023-06-14T00:50:45.247Z,100.00
2023-06-14T00:53:19.969Z,100.00
2023-06-14T00:55:54.683Z,100.00
2023-06-14T00:58:24.905Z,100.00
2023-06-14T01:00:53.678Z,100.00
2023-06-14T01:03:24.147Z,100.00
2023-06-14T01:05:57.885Z,100.00
2023-06-14T01:08:29.605Z,100.00
2023-06-14T01:11:16.394Z,100.00
2023-06-14T01:13:48.301Z,100.00
2023-06-14T01:16:17.283Z,100.00
2023-06-14T01:18:48.975Z,100.00
2023-06-14T01:21:29.640Z,100.00
2023-06-14T01:23:58.469Z,100.00
2023-06-14T01:26:29.541Z,100.00
2023-06-14T01:28:59.790Z,100.00
2023-06-14T01:31:30.742Z,100.00
2023-06-14T01:33:59.528Z,100.00
2023-06-14T01:36:29.851Z,100.00
2023-06-14T01:39:00.780Z,100.00
2023-06-14T01:41:31.724Z,100.00
2023-06-14T01:44:01.790Z,100.00
2023-06-14T01:46:30.573Z,100.00
2023-06-14T01:48:59.504Z,100.00
2023-06-14T01:51:28.194Z,100.00
2023-06-14T01:53:56.876Z,100.00
2023-06-14T01:56:25.653Z,100.00
2023-06-14T01:58:55.157Z,100.00
2023-06-14T02:01:24.649Z,100.00
2023-06-14T02:03:54.913Z,100.00
2023-06-14T02:06:23.630Z,100.00
2023-06-14T02:08:54.906Z,100.00
2023-06-14T02:11:23.641Z,100.00
2023-06-14T02:13:52.309Z,100.00
2023-06-14T02:16:20.995Z,100.00
2023-06-14T02:18:51.674Z,100.00
2023-06-14T02:21:20.377Z,100.00
2023-06-14T02:23:49.110Z,100.00
2023-06-14T02:26:18.480Z,100.00
2023-06-14T02:28:47.068Z,100.00
2023-06-14T02:31:16.003Z,100.00
2023-06-14T02:33:44.757Z,100.00
2023-06-14T02:36:13.591Z,100.00
2023-06-14T02:38:42.366Z,100.00
2023-06-14T02:41:11.331Z,100.00
2023-06-14T02:43:40.397Z,100.00
2023-06-14T02:46:09.098Z,100.00
2023-06-14T02:48:39.259Z,100.00
2023-06-14T02:51:09.632Z,100.00
2023-06-14T02:53:38.790Z,100.00
2023-06-14T02:56:07.640Z,100.00
2023-06-14T02:58:36.409Z,100.00
2023-06-14T03:01:06.801Z,100.00
2023-06-14T03:03:35.955Z,100.00
2023-06-14T03:06:06.044Z,100.00
2023-06-14T03:08:36.408Z,100.00
2023-06-14T03:11:06.142Z,100.00
2023-06-14T03:13:40.785Z,100.00
2023-06-14T03:16:11.263Z,100.00
2023-06-14T03:18:40.061Z,100.00
2023-06-14T03:21:10.181Z,100.00
2023-06-14T03:23:39.080Z,100.00
2023-06-14T03:26:07.775Z,100.00
2023-06-14T03:28:36.426Z,100.00
2023-06-14T03:31:05.133Z,100.00
2023-06-14T03:33:33.931Z,100.00
2023-06-14T03:36:04.246Z,100.00
2023-06-14T03:38:34.227Z,100.00
2023-06-14T03:41:03.138Z,100.00
2023-06-14T03:43:31.965Z,100.00
2023-06-14T03:46:00.912Z,100.00
2023-06-14T03:48:29.858Z,100.00
2023-06-14T03:51:01.427Z,100.00
2023-06-14T03:53:30.864Z,100.00
2023-06-14T03:56:01.259Z,100.00
2023-06-14T03:58:30.340Z,100.00
2023-06-14T04:00:59.031Z,100.00
2023-06-14T04:03:29.449Z,100.00
2023-06-14T04:05:59.879Z,100.00
2023-06-14T04:08:28.771Z,100.00
2023-06-14T04:10:57.425Z,100.00
2023-06-14T04:13:26.231Z,100.00
2023-06-14T04:15:55.191Z,100.00
2023-06-14T04:18:25.730Z,100.00
2023-06-14T04:20:54.705Z,100.00
2023-06-14T04:23:23.494Z,100.00
2023-06-14T04:25:52.212Z,100.00
2023-06-14T04:28:27.831Z,100.00
2023-06-14T04:30:58.782Z,100.00
2023-06-14T04:33:33.249Z,100.00
2023-06-14T04:36:06.889Z,100.00
2023-06-14T04:38:36.068Z,100.00
2023-06-14T04:41:04.925Z,100.00
2023-06-14T04:43:36.274Z,100.00
2023-06-14T04:46:06.810Z,100.00
2023-06-14T04:48:36.245Z,100.00
2023-06-14T04:51:06.714Z,100.00
2023-06-14T04:53:35.388Z,100.00
2023-06-14T04:56:05.288Z,100.00
2023-06-14T04:58:38.720Z,100.00
2023-06-14T05:01:09.135Z,100.00
2023-06-14T05:03:37.852Z,100.00
2023-06-14T05:06:07.326Z,100.00
2023-06-14T05:08:38.417Z,100.00
2023-06-14T05:11:07.248Z,100.00
2023-06-14T05:13:36.681Z,100.00
2023-06-14T05:16:05.625Z,100.00
2023-06-14T05:18:35.895Z,100.00
2023-06-14T05:21:05.963Z,100.00
2023-06-14T05:23:38.122Z,100.00
2023-06-14T05:26:08.567Z,100.00
2023-06-14T05:28:38.903Z,100.00
2023-06-14T05:34:47.669Z,100.00
2023-06-14T05:37:16.979Z,100.00
2023-06-14T05:39:49.644Z,100.00
2023-06-14T05:42:20.042Z,100.00
2023-06-14T05:44:48.856Z,100.00
2023-06-14T05:47:20.049Z,100.00
2023-06-14T05:49:51.329Z,100.00
2023-06-14T05:52:23.066Z,100.00
2023-06-14T05:54:57.720Z,100.00
2023-06-14T05:57:26.533Z,100.00
2023-06-14T06:00:12.584Z,100.00
2023-06-14T06:02:52.695Z,100.00
2023-06-14T06:08:28.529Z,100.00
2023-06-14T06:10:58.037Z,100.00
2023-06-14T06:13:29.165Z,100.00
2023-06-14T06:15:57.621Z,100.00
2023-06-14T06:18:28.430Z,100.00
2023-06-14T06:20:57.231Z,100.00
2023-06-14T06:23:26.039Z,100.00
2023-06-14T06:25:54.801Z,100.00
2023-06-14T06:28:23.529Z,100.00
2023-06-14T06:30:52.396Z,100.00
2023-06-14T06:33:21.135Z,100.00
2023-06-14T06:35:51.525Z,100.00
2023-06-14T06:38:22.233Z,100.00
2023-06-14T06:40:51.701Z,100.00
2023-06-14T06:43:27.020Z,100.00
2023-06-14T06:45:57.890Z,100.00
2023-06-14T06:48:30.252Z,100.00
2023-06-14T06:50:58.897Z,100.00
2023-06-14T06:53:40.568Z,100.00
2023-06-14T06:56:01.282Z,100.00
2023-06-14T06:58:33.759Z,100.00
2023-06-14T07:01:02.551Z,100.00
2023-06-14T07:03:34.154Z,100.00
2023-06-14T07:06:03.110Z,100.00
2023-06-14T07:08:32.013Z,100.00
2023-06-14T07:11:00.716Z,100.00
2023-06-14T07:13:29.574Z,100.00
2023-06-14T07:16:02.780Z,100.00
2023-06-14T07:18:31.784Z,100.00
2023-06-14T07:21:02.126Z,100.00
2023-06-14T07:23:31.037Z,100.00
2023-06-14T07:26:02.621Z,100.00
2023-06-14T07:28:31.531Z,100.00
2023-06-14T07:31:00.235Z,100.00
2023-06-14T07:33:29.028Z,100.00
2023-06-14T07:35:59.545Z,100.00
2023-06-14T07:38:28.311Z,100.00
2023-06-14T07:40:57.301Z,100.00
2023-06-14T07:43:29.254Z,100.00
2023-06-14T07:46:07.397Z,100.00
2023-06-14T07:48:31.190Z,100.00
2023-06-14T07:51:00.272Z,100.00
2023-06-14T07:53:30.266Z,100.00
2023-06-14T07:56:01.158Z,100.00
2023-06-14T07:58:29.815Z,100.00
2023-06-14T08:00:58.444Z,100.00
2023-06-14T08:03:27.872Z,100.00
2023-06-14T08:05:57.278Z,100.00
2023-06-14T08:08:26.276Z,100.00
2023-06-14T08:10:58.118Z,100.00
2023-06-14T08:13:27.221Z,100.00
2023-06-14T08:15:57.737Z,100.00
2023-06-14T08:18:28.561Z,100.00
2023-06-14T08:20:58.960Z,100.00
2023-06-14T08:23:32.423Z,100.00
2023-06-14T08:26:08.933Z,100.00
2023-06-14T08:28:37.780Z,100.00
2023-06-14T08:31:12.414Z,100.00
2023-06-14T08:33:44.822Z,97.14
2023-06-14T08:36:14.015Z,100.00
2023-06-14T08:38:43.095Z,96.81
2023-06-14T08:41:17.302Z,93.50
2023-06-14T08:43:46.523Z,94.55
2023-06-14T08:46:19.021Z,89.78
2023-06-14T08:48:51.068Z,86.06
2023-06-14T08:51:23.745Z,81.06
2023-06-14T08:54:00.194Z,82.96
2023-06-14T08:56:30.769Z,77.80
2023-06-14T08:59:05.039Z,78.99
2023-06-14T09:01:35.985Z,79.93
2023-06-14T09:04:07.007Z,78.91
2023-06-14T09:06:37.574Z,80.39
2023-06-14T09:09:06.387Z,81.15
2023-06-14T09:11:35.139Z,76.74
2023-06-14T09:14:04.249Z,76.53
2023-06-14T09:16:35.099Z,81.14
2023-06-14T09:19:03.882Z,83.20
2023-06-14T09:21:38.495Z,82.94
2023-06-14T09:24:08.089Z,80.96
2023-06-14T09:26:44.429Z,80.29
2023-06-14T09:29:16.225Z,82.51
2023-06-14T09:31:46.820Z,81.99
2023-06-14T09:34:19.209Z,83.22
2023-06-14T09:36:49.167Z,75.47
2023-06-14T09:39:44.282Z,71.97
2023-06-14T09:42:21.361Z,66.93
2023-06-14T09:45:03.740Z,59.77
2023-06-14T09:50:26.482Z,57.66
2023-06-14T09:52:58.730Z,57.55
2023-06-14T09:55:30.112Z,58.21
2023-06-14T09:58:02.826Z,60.24
2023-06-14T10:00:33.691Z,64.83
2023-06-14T10:03:11.095Z,71.20
2023-06-14T10:05:41.531Z,69.76
2023-06-14T10:08:21.123Z,70.29
2023-06-14T10:10:50.235Z,68.02
2023-06-14T10:13:20.043Z,68.02
2023-06-14T10:16:13.459Z,67.98
2023-06-14T10:19:13.995Z,63.50
2023-06-14T10:22:06.976Z,58.45
2023-06-14T10:24:47.273Z,58.43
2023-06-14T10:27:25.586Z,58.76
2023-06-14T10:30:13.647Z,58.11
2023-06-14T10:33:04.039Z,59.69
2023-06-14T10:39:03.902Z,59.03
2023-06-14T10:41:54.867Z,57.48
2023-06-14T10:44:26.761Z,57.15
2023-06-14T10:46:57.359Z,56.06
2023-06-14T10:49:44.528Z,56.92
2023-06-14T10:52:21.658Z,58.88
2023-06-14T10:55:20.777Z,59.24
2023-06-14T10:58:00.066Z,56.91
2023-06-14T11:00:34.540Z,55.33
2023-06-14T11:03:39.911Z,53.08
2023-06-14T11:06:15.937Z,53.24
2023-06-14T11:08:54.635Z,53.60
2023-06-14T11:11:28.419Z,53.28
2023-06-14T11:13:57.320Z,50.44
2023-06-14T11:16:29.388Z,50.64
2023-06-14T11:18:58.237Z,51.79
2023-06-14T11:21:28.631Z,52.45
2023-06-14T11:23:57.625Z,52.24
2023-06-14T11:26:36.698Z,54.91
2023-06-14T11:29:07.355Z,53.54
2023-06-14T11:31:36.508Z,54.66
2023-06-14T11:34:07.691Z,55.41
2023-06-14T11:36:39.651Z,54.75
2023-06-14T11:39:10.027Z,55.19
2023-06-14T11:41:51.234Z,54.81
2023-06-14T11:44:20.130Z,55.37
2023-06-14T11:46:49.356Z,55.18
2023-06-14T11:49:18.315Z,54.49
2023-06-14T11:51:50.810Z,55.45
2023-06-14T11:54:19.721Z,54.23
2023-06-14T11:56:48.689Z,52.32
2023-06-14T11:59:21.155Z,54.51
2023-06-14T12:01:53.150Z,52.02
2023-06-14T12:04:32.729Z,53.09
2023-06-14T12:07:15.161Z,53.19
2023-06-14T12:10:04.336Z,53.29
2023-06-14T12:12:34.865Z,52.29
2023-06-14T12:15:07.517Z,51.48
2023-06-14T12:17:44.983Z,52.29
2023-06-14T12:20:21.401Z,54.74
2023-06-14T12:22:58.486Z,50.92
2023-06-14T12:25:31.990Z,51.25
2023-06-14T12:28:35.505Z,52.27
2023-06-14T12:31:04.799Z,52.79
2023-06-14T12:33:33.681Z,50.75
2023-06-14T12:36:03.953Z,52.12
2023-06-14T12:38:35.738Z,50.72
2023-06-14T12:41:04.861Z,50.21
2023-06-14T12:43:33.723Z,50.33
2023-06-14T12:46:04.027Z,50.37
2023-06-14T12:48:35.499Z,50.23
2023-06-14T12:51:04.233Z,48.88
2023-06-14T12:53:33.160Z,47.46
2023-06-14T12:56:01.863Z,48.81
2023-06-14T12:58:30.692Z,50.15
2023-06-14T13:01:01.287Z,50.13
2023-06-14T13:03:32.425Z,49.45
2023-06-14T13:06:04.792Z,49.48
2023-06-14T13:08:33.645Z,49.84
2023-06-14T13:11:02.357Z,47.64
2023-06-14T13:13:31.219Z,46.79
2023-06-14T13:15:59.946Z,45.19
2023-06-14T13:18:28.690Z,44.42
2023-06-14T13:20:57.579Z,44.63
2023-06-14T13:23:28.971Z,44.38
2023-06-14T13:25:57.727Z,48.67
2023-06-14T13:28:28.059Z,58.75
2023-06-14T13:30:57.046Z,64.09
2023-06-14T13:33:28.765Z,74.66
2023-06-14T13:35:57.697Z,89.56
2023-06-14T13:38:29.653Z,100.00
2023-06-14T13:41:05.020Z,100.00
2023-06-14T13:43:33.803Z,100.00
2023-06-14T13:46:04.232Z,100.00
2023-06-14T13:48:34.530Z,100.00
2023-06-14T13:51:08.249Z,100.00
2023-06-14T13:53:40.894Z,100.00
2023-06-14T13:56:09.245Z,100.00
2023-06-14T13:58:39.592Z,100.00
2023-06-14T14:01:08.802Z,100.00
2023-06-14T14:03:40.513Z,100.00
2023-06-14T14:06:09.273Z,100.00
2023-06-14T14:08:38.140Z,100.00
2023-06-14T14:11:08.720Z,100.00
2023-06-14T14:13:38.936Z,100.00
2023-06-14T14:16:08.256Z,100.00
2023-06-14T14:18:40.348Z,100.00
2023-06-14T14:21:10.879Z,100.00
2023-06-14T14:23:41.904Z,100.00
2023-06-14T14:26:10.142Z,100.00
2023-06-14T14:28:38.919Z,100.00
2023-06-14T14:31:07.794Z,100.00
2023-06-14T14:33:36.560Z,100.00
2023-06-14T14:36:07.476Z,100.00
2023-06-14T14:38:40.589Z,100.00
2023-06-14T14:41:09.749Z,100.00
2023-06-14T14:43:39.598Z,100.00
2023-06-14T14:46:08.310Z,100.00
2023-06-14T14:48:46.600Z,100.00
2023-06-14T14:51:18.061Z,100.00
2023-06-14T14:53:46.840Z,100.00
2023-06-14T14:56:15.711Z,100.00
2023-06-14T14:58:45.237Z,100.00
2023-06-14T15:01:17.096Z,100.00
2023-06-14T15:03:58.530Z,100.00
2023-06-14T15:06:16.528Z,100.00
2023-06-14T15:08:45.759Z,100.00
2023-06-14T15:11:14.567Z,100.00
2023-06-14T15:13:43.235Z,100.00
2023-06-14T15:16:13.027Z,100.00
2023-06-14T15:18:42.108Z,100.00
2023-06-14T15:21:10.884Z,100.00
2023-06-14T15:23:39.708Z,100.00
2023-06-14T15:26:09.642Z,100.00
2023-06-14T15:28:38.337Z,100.00
2023-06-14T15:31:07.793Z,100.00
2023-06-14T15:33:36.704Z,100.00
2023-06-14T15:36:06.092Z,100.00
2023-06-14T15:38:35.048Z,100.00
2023-06-14T15:41:05.448Z,100.00
2023-06-14T15:49:39.118Z,100.00
2023-06-14T15:52:08.498Z,100.00
2023-06-14T15:54:37.342Z,100.00
2023-06-14T15:57:07.275Z,100.00
2023-06-14T15:59:37.799Z,100.00
2023-06-14T16:02:06.836Z,100.00
2023-06-14T16:04:35.803Z,100.00
2023-06-14T16:07:06.446Z,100.00
2023-06-14T16:09:35.149Z,100.00
2023-06-14T16:12:05.893Z,100.00
2023-06-14T16:14:34.628Z,100.00
2023-06-14T16:17:04.548Z,100.00
2023-06-14T16:19:33.615Z,100.00
2023-06-14T16:22:03.379Z,100.00
2023-06-14T16:24:34.944Z,100.00
2023-06-14T16:27:06.244Z,100.00
2023-06-14T16:29:35.364Z,100.00
2023-06-14T16:32:08.342Z,100.00
2023-06-14T16:34:42.867Z,100.00
2023-06-14T16:37:11.532Z,100.00
2023-06-14T16:39:40.203Z,100.00
2023-06-14T16:42:09.245Z,100.00
2023-06-14T16:44:40.043Z,100.00
2023-06-14T16:47:11.423Z,100.00
2023-06-14T16:49:40.410Z,100.00
2023-06-14T16:52:10.063Z,100.00
2023-06-14T16:54:40.044Z,100.00
2023-06-14T16:57:12.023Z,100.00
2023-06-14T16:59:41.231Z,100.00
2023-06-14T17:02:10.570Z,100.00
2023-06-14T17:04:39.565Z,100.00
2023-06-14T17:07:08.829Z,100.00
2023-06-14T17:09:37.601Z,100.00
2023-06-14T17:15:27.632Z,100.00
2023-06-14T17:17:58.096Z,100.00
2023-06-14T17:20:28.617Z,100.00
2023-06-14T17:22:58.927Z,100.00
2023-06-14T17:25:27.854Z,100.00
2023-06-14T17:27:57.266Z,100.00
2023-06-14T17:30:26.378Z,100.00
2023-06-14T17:33:00.347Z,100.00
2023-06-14T17:35:29.077Z,100.00
2023-06-14T17:37:58.136Z,100.00
2023-06-14T17:40:49.050Z,100.00
2023-06-14T17:43:23.196Z,100.00
2023-06-14T17:45:57.587Z,100.00
2023-06-14T17:48:32.743Z,100.00
2023-06-14T17:51:04.975Z,100.00
2023-06-14T17:53:36.562Z,100.00
2023-06-14T17:56:07.598Z,100.00
2023-06-14T17:58:38.507Z,100.00
2023-06-14T18:01:18.695Z,100.00
2023-06-14T18:03:47.659Z,100.00
2023-06-14T18:06:18.584Z,100.00
2023-06-14T18:08:49.594Z,100.00
2023-06-14T18:11:21.417Z,100.00
2023-06-14T18:13:54.905Z,100.00
2023-06-14T18:16:26.727Z,100.00
2023-06-14T18:19:01.949Z,100.00
2023-06-14T18:25:04.609Z,100.00
2023-06-14T18:33:39.548Z,100.00
2023-06-14T18:36:08.329Z,100.00
2023-06-14T18:39:00.153Z,100.00
2023-06-14T18:41:55.621Z,100.00
2023-06-14T18:47:04.469Z,100.00
2023-06-14T18:49:44.000Z,100.00
2023-06-14T18:55:39.280Z,100.00
2023-06-14T18:58:33.545Z,100.00
2023-06-14T19:01:11.591Z,100.00
2023-06-14T19:03:58.098Z,100.00
2023-06-14T19:06:27.162Z,100.00
2023-06-14T19:09:02.038Z,100.00
2023-06-14T19:11:32.897Z,100.00
2023-06-14T19:20:32.611Z,100.00
2023-06-14T19:26:23.989Z,100.00
2023-06-14T19:32:04.623Z,100.00
2023-06-14T19:34:38.227Z,100.00
2023-06-14T19:37:10.141Z,100.00
2023-06-14T19:39:45.478Z,100.00
2023-06-14T19:42:16.527Z,100.00
2023-06-14T19:47:49.735Z,100.00
2023-06-14T19:50:29.328Z,100.00
2023-06-14T20:05:09.577Z,100.00
2023-06-14T20:07:40.370Z,100.00
2023-06-14T20:10:28.166Z,100.00
2023-06-14T20:19:07.990Z,100.00
2023-06-14T20:21:53.189Z,100.00
2023-06-14T20:24:44.403Z,100.00
2023-06-14T20:30:29.630Z,100.00
2023-06-14T20:33:18.878Z,100.00
2023-06-14T20:36:01.484Z,100.00
2023-06-14T20:38:31.632Z,100.00
2023-06-14T20:41:10.130Z,100.00
2023-06-14T20:43:47.721Z,100.00
2023-06-14T20:46:18.308Z,100.00
2023-06-14T20:48:55.516Z,100.00
2023-06-14T20:51:35.341Z,100.00
2023-06-14T20:54:26.145Z,100.00
2023-06-14T20:57:21.055Z,100.00
2023-06-14T20:59:53.406Z,100.00
2023-06-14T21:02:37.875Z,100.00
2023-06-14T21:05:13.294Z,100.00
2023-06-14T21:07:46.247Z,100.00
2023-06-14T21:10:19.635Z,100.00
2023-06-14T21:12:59.581Z,100.00
2023-06-14T21:15:30.793Z,100.00
2023-06-14T21:18:05.258Z,100.00
2023-06-14T21:20:41.455Z,100.00
2023-06-14T21:23:11.074Z,100.00
2023-06-14T21:25:42.731Z,100.00
2023-06-14T21:28:11.485Z,100.00
2023-06-14T21:30:40.347Z,100.00
2023-06-14T21:33:09.073Z,100.00
2023-06-14T21:35:37.863Z,100.00
2023-06-14T21:38:09.041Z,100.00
2023-06-14T21:40:37.744Z,100.00
2023-06-14T21:43:06.457Z,100.00
2023-06-14T21:45:56.578Z,100.00
2023-06-14T21:48:22.470Z,100.00
2023-06-14T21:50:56.786Z,100.00
2023-06-14T21:53:34.944Z,100.00
2023-06-14T21:56:08.761Z,100.00
2023-06-14T21:58:39.102Z,100.00
2023-06-14T22:06:55.941Z,100.00
2023-06-14T22:09:26.454Z,100.00
2023-06-14T22:11:59.135Z,100.00
2023-06-14T22:14:33.159Z,100.00
2023-06-14T22:17:04.067Z,100.00
2023-06-14T22:19:34.622Z,100.00
2023-06-14T22:22:03.648Z,100.00
2023-06-14T22:24:33.684Z,100.00
2023-06-14T22:27:02.489Z,100.00
2023-06-14T22:29:31.211Z,100.00
2023-06-14T22:32:01.948Z,100.00
2023-06-14T22:34:32.350Z,100.00
2023-06-14T22:37:02.792Z,100.00
2023-06-14T22:39:31.471Z,100.00
2023-06-14T22:42:08.277Z,100.00
2023-06-14T22:44:38.277Z,100.00
2023-06-14T22:47:09.119Z,100.00
2023-06-14T22:49:39.829Z,100.00
2023-06-14T22:52:10.509Z,100.00
2023-06-14T22:54:39.304Z,100.00
2023-06-14T22:57:08.993Z,100.00
2023-06-14T22:59:38.596Z,100.00
2023-06-14T23:02:07.463Z,100.00
2023-06-14T23:04:36.290Z,100.00
2023-06-14T23:07:06.288Z,100.00
2023-06-14T23:09:36.606Z,100.00
2023-06-14T23:12:05.771Z,100.00
2023-06-14T23:14:34.697Z,100.00
2023-06-14T23:17:05.341Z,100.00
2023-06-14T23:19:36.760Z,100.00
2023-06-14T23:22:08.617Z,100.00
2023-06-14T23:24:38.391Z,100.00
2023-06-14T23:27:07.790Z,100.00
2023-06-14T23:29:36.953Z,100.00
2023-06-14T23:32:08.628Z,100.00
2023-06-14T23:34:37.474Z,100.00
2023-06-14T23:37:08.074Z,100.00
2023-06-14T23:39:38.367Z,100.00
2023-06-14T23:42:10.979Z,100.00
2023-06-14T23:44:41.305Z,100.00
2023-06-14T23:47:10.177Z,100.00
2023-06-14T23:49:38.874Z,100.00
2023-06-14T23:52:10.958Z,100.00
2023-06-14T23:54:40.705Z,100.00
2023-06-14T23:57:09.559Z,100.00
2023-06-14T23:59:39.481Z,100.00
